sensor_id;sensor_type;location;lat;lon;timestamp;P1;durP1;ratioP1;P2;durP2;ratioP2
51724;SDS011;37801;53.224;6.552;2023-08-01T00:00:06;16.45;;;6.20;;
51724;SDS011;37801;53.224;6.552;2023-08-01T00:02:33;13.73;;;5.75;;
51724;SDS011;37801;53.224;6.552;2023-08-01T00:04:59;15.48;;;6.20;;
51724;SDS011;37801;53.224;6.552;2023-08-01T00:07:26;13.00;;;5.60;;
51724;SDS011;37801;53.224;6.552;2023-08-01T00:09:52;18.50;;;6.55;;
51724;SDS011;37801;53.224;6.552;2023-08-01T00:12:18;12.55;;;5.75;;
51724;SDS011;37801;53.224;6.552;2023-08-01T00:14:44;14.30;;;6.70;;
51724;SDS011;37801;53.224;6.552;2023-08-01T00:17:09;14.77;;;5.85;;
51724;SDS011;37801;53.224;6.552;2023-08-01T00:19:35;13.25;;;5.97;;
51724;SDS011;37801;53.224;6.552;2023-08-01T00:22:01;11.27;;;5.05;;
51724;SDS011;37801;53.224;6.552;2023-08-01T00:24:26;11.63;;;6.22;;
51724;SDS011;37801;53.224;6.552;2023-08-01T00:26:52;14.43;;;6.38;;
51724;SDS011;37801;53.224;6.552;2023-08-01T00:29:20;10.90;;;5.57;;
51724;SDS011;37801;53.224;6.552;2023-08-01T00:31:46;14.10;;;6.43;;
51724;SDS011;37801;53.224;6.552;2023-08-01T00:34:12;16.33;;;6.15;;
51724;SDS011;37801;53.224;6.552;2023-08-01T00:36:37;13.45;;;6.05;;
51724;SDS011;37801;53.224;6.552;2023-08-01T00:39:03;11.38;;;5.95;;
51724;SDS011;37801;53.224;6.552;2023-08-01T00:41:29;13.02;;;5.43;;
51724;SDS011;37801;53.224;6.552;2023-08-01T00:43:55;10.90;;;5.75;;
51724;SDS011;37801;53.224;6.552;2023-08-01T00:46:20;12.15;;;6.25;;
51724;SDS011;37801;53.224;6.552;2023-08-01T00:48:46;10.25;;;5.30;;
51724;SDS011;37801;53.224;6.552;2023-08-01T00:51:12;15.27;;;5.70;;
51724;SDS011;37801;53.224;6.552;2023-08-01T00:53:39;14.45;;;5.88;;
51724;SDS011;37801;53.224;6.552;2023-08-01T00:56:25;11.85;;;5.78;;
51724;SDS011;37801;53.224;6.552;2023-08-01T00:59:11;11.40;;;5.38;;
51724;SDS011;37801;53.224;6.552;2023-08-01T01:01:37;10.13;;;5.22;;
51724;SDS011;37801;53.224;6.552;2023-08-01T01:04:03;13.00;;;6.05;;
51724;SDS011;37801;53.224;6.552;2023-08-01T01:06:34;10.65;;;5.25;;
51724;SDS011;37801;53.224;6.552;2023-08-01T01:09:18;11.07;;;5.25;;
51724;SDS011;37801;53.224;6.552;2023-08-01T01:11:45;10.43;;;5.47;;
51724;SDS011;37801;53.224;6.552;2023-08-01T01:14:31;11.85;;;5.30;;
51724;SDS011;37801;53.224;6.552;2023-08-01T01:17:17;9.93;;;5.22;;
51724;SDS011;37801;53.224;6.552;2023-08-01T01:20:02;9.63;;;5.10;;
51724;SDS011;37801;53.224;6.552;2023-08-01T01:22:48;12.45;;;4.95;;
51724;SDS011;37801;53.224;6.552;2023-08-01T01:25:35;9.00;;;4.90;;
51724;SDS011;37801;53.224;6.552;2023-08-01T01:28:22;9.00;;;5.43;;
51724;SDS011;37801;53.224;6.552;2023-08-01T01:31:09;11.57;;;5.13;;
51724;SDS011;37801;53.224;6.552;2023-08-01T01:33:55;12.18;;;5.07;;
51724;SDS011;37801;53.224;6.552;2023-08-01T01:36:41;9.40;;;5.05;;
51724;SDS011;37801;53.224;6.552;2023-08-01T01:39:27;10.90;;;5.70;;
51724;SDS011;37801;53.224;6.552;2023-08-01T01:42:13;12.05;;;5.55;;
51724;SDS011;37801;53.224;6.552;2023-08-01T01:44:58;9.32;;;5.70;;
51724;SDS011;37801;53.224;6.552;2023-08-01T01:47:44;11.60;;;5.70;;
51724;SDS011;37801;53.224;6.552;2023-08-01T01:50:29;7.47;;;5.13;;
51724;SDS011;37801;53.224;6.552;2023-08-01T01:53:15;11.25;;;5.35;;
51724;SDS011;37801;53.224;6.552;2023-08-01T01:56:01;8.77;;;5.10;;
51724;SDS011;37801;53.224;6.552;2023-08-01T01:58:46;9.63;;;5.38;;
51724;SDS011;37801;53.224;6.552;2023-08-01T02:01:32;9.35;;;5.32;;
51724;SDS011;37801;53.224;6.552;2023-08-01T02:04:17;9.35;;;5.40;;
51724;SDS011;37801;53.224;6.552;2023-08-01T02:07:03;10.10;;;5.43;;
51724;SDS011;37801;53.224;6.552;2023-08-01T02:09:29;13.20;;;5.68;;
51724;SDS011;37801;53.224;6.552;2023-08-01T02:11:55;11.77;;;5.32;;
51724;SDS011;37801;53.224;6.552;2023-08-01T02:14:40;12.77;;;5.43;;
51724;SDS011;37801;53.224;6.552;2023-08-01T02:17:26;9.48;;;5.45;;
51724;SDS011;37801;53.224;6.552;2023-08-01T02:20:11;11.55;;;5.60;;
51724;SDS011;37801;53.224;6.552;2023-08-01T02:22:57;9.48;;;5.57;;
51724;SDS011;37801;53.224;6.552;2023-08-01T02:25:43;11.25;;;5.80;;
51724;SDS011;37801;53.224;6.552;2023-08-01T02:28:28;11.95;;;5.38;;
51724;SDS011;37801;53.224;6.552;2023-08-01T02:31:15;10.35;;;5.57;;
51724;SDS011;37801;53.224;6.552;2023-08-01T02:34:01;9.65;;;5.18;;
51724;SDS011;37801;53.224;6.552;2023-08-01T02:36:46;10.27;;;5.28;;
51724;SDS011;37801;53.224;6.552;2023-08-01T02:39:32;12.20;;;5.90;;
51724;SDS011;37801;53.224;6.552;2023-08-01T02:42:17;10.80;;;5.25;;
51724;SDS011;37801;53.224;6.552;2023-08-01T02:44:43;12.60;;;5.30;;
51724;SDS011;37801;53.224;6.552;2023-08-01T02:47:09;9.63;;;5.22;;
51724;SDS011;37801;53.224;6.552;2023-08-01T02:49:34;9.23;;;5.07;;
51724;SDS011;37801;53.224;6.552;2023-08-01T02:52:00;9.35;;;4.88;;
51724;SDS011;37801;53.224;6.552;2023-08-01T02:54:25;9.23;;;4.53;;
51724;SDS011;37801;53.224;6.552;2023-08-01T02:56:51;12.93;;;5.88;;
51724;SDS011;37801;53.224;6.552;2023-08-01T02:59:17;7.80;;;5.13;;
51724;SDS011;37801;53.224;6.552;2023-08-01T03:01:45;13.02;;;5.28;;
51724;SDS011;37801;53.224;6.552;2023-08-01T03:04:11;9.48;;;5.13;;
51724;SDS011;37801;53.224;6.552;2023-08-01T03:06:56;8.70;;;4.85;;
51724;SDS011;37801;53.224;6.552;2023-08-01T03:09:42;9.70;;;5.03;;
51724;SDS011;37801;53.224;6.552;2023-08-01T03:12:27;10.23;;;5.35;;
51724;SDS011;37801;53.224;6.552;2023-08-01T03:15:13;13.68;;;5.63;;
51724;SDS011;37801;53.224;6.552;2023-08-01T03:17:58;8.75;;;5.13;;
51724;SDS011;37801;53.224;6.552;2023-08-01T03:20:44;9.35;;;5.38;;
51724;SDS011;37801;53.224;6.552;2023-08-01T03:23:30;11.98;;;5.90;;
51724;SDS011;37801;53.224;6.552;2023-08-01T03:26:15;11.57;;;5.82;;
51724;SDS011;37801;53.224;6.552;2023-08-01T03:29:01;11.30;;;5.80;;
51724;SDS011;37801;53.224;6.552;2023-08-01T03:31:47;10.50;;;5.70;;
51724;SDS011;37801;53.224;6.552;2023-08-01T03:34:32;11.77;;;6.18;;
51724;SDS011;37801;53.224;6.552;2023-08-01T03:37:18;11.23;;;6.20;;
51724;SDS011;37801;53.224;6.552;2023-08-01T03:40:04;11.68;;;7.20;;
51724;SDS011;37801;53.224;6.552;2023-08-01T03:42:50;11.02;;;6.53;;
51724;SDS011;37801;53.224;6.552;2023-08-01T03:45:35;13.82;;;7.07;;
51724;SDS011;37801;53.224;6.552;2023-08-01T03:48:21;12.88;;;6.95;;
51724;SDS011;37801;53.224;6.552;2023-08-01T03:51:06;12.23;;;6.20;;
51724;SDS011;37801;53.224;6.552;2023-08-01T03:53:52;10.45;;;5.82;;
51724;SDS011;37801;53.224;6.552;2023-08-01T03:56:38;9.90;;;5.57;;
51724;SDS011;37801;53.224;6.552;2023-08-01T03:59:23;10.90;;;5.43;;
51724;SDS011;37801;53.224;6.552;2023-08-01T04:02:09;13.23;;;5.95;;
51724;SDS011;37801;53.224;6.552;2023-08-01T04:04:35;8.38;;;4.60;;
51724;SDS011;37801;53.224;6.552;2023-08-01T04:07:00;10.77;;;4.78;;
51724;SDS011;37801;53.224;6.552;2023-08-01T04:09:26;9.07;;;4.90;;
51724;SDS011;37801;53.224;6.552;2023-08-01T04:11:51;11.73;;;4.88;;
51724;SDS011;37801;53.224;6.552;2023-08-01T04:14:17;8.05;;;4.32;;
51724;SDS011;37801;53.224;6.552;2023-08-01T04:16:43;9.90;;;4.35;;
51724;SDS011;37801;53.224;6.552;2023-08-01T04:19:28;9.23;;;4.45;;
51724;SDS011;37801;53.224;6.552;2023-08-01T04:22:14;8.60;;;4.20;;
51724;SDS011;37801;53.224;6.552;2023-08-01T04:25:03;7.53;;;3.83;;
51724;SDS011;37801;53.224;6.552;2023-08-01T04:27:49;9.02;;;3.40;;
51724;SDS011;37801;53.224;6.552;2023-08-01T04:30:34;6.97;;;3.90;;
51724;SDS011;37801;53.224;6.552;2023-08-01T04:33:20;9.18;;;3.42;;
51724;SDS011;37801;53.224;6.552;2023-08-01T04:36:05;7.45;;;3.15;;
51724;SDS011;37801;53.224;6.552;2023-08-01T04:38:51;9.15;;;4.00;;
51724;SDS011;37801;53.224;6.552;2023-08-01T04:41:36;6.90;;;3.35;;
51724;SDS011;37801;53.224;6.552;2023-08-01T04:44:22;7.90;;;3.20;;
51724;SDS011;37801;53.224;6.552;2023-08-01T04:47:07;9.57;;;3.60;;
51724;SDS011;37801;53.224;6.552;2023-08-01T04:49:53;7.68;;;3.42;;
51724;SDS011;37801;53.224;6.552;2023-08-01T04:52:39;9.40;;;3.83;;
51724;SDS011;37801;53.224;6.552;2023-08-01T04:55:24;9.00;;;3.40;;
51724;SDS011;37801;53.224;6.552;2023-08-01T04:58:10;7.38;;;3.00;;
51724;SDS011;37801;53.224;6.552;2023-08-01T05:00:55;10.38;;;3.20;;
51724;SDS011;37801;53.224;6.552;2023-08-01T05:03:41;6.78;;;3.00;;
51724;SDS011;37801;53.224;6.552;2023-08-01T05:06:26;7.57;;;2.90;;
51724;SDS011;37801;53.224;6.552;2023-08-01T05:09:12;6.82;;;2.83;;
51724;SDS011;37801;53.224;6.552;2023-08-01T05:11:58;9.18;;;3.30;;
51724;SDS011;37801;53.224;6.552;2023-08-01T05:14:43;4.63;;;2.45;;
51724;SDS011;37801;53.224;6.552;2023-08-01T05:17:29;10.88;;;3.25;;
51724;SDS011;37801;53.224;6.552;2023-08-01T05:20:14;7.00;;;3.33;;
51724;SDS011;37801;53.224;6.552;2023-08-01T05:23:00;9.65;;;3.30;;
51724;SDS011;37801;53.224;6.552;2023-08-01T05:25:46;6.25;;;3.05;;
51724;SDS011;37801;53.224;6.552;2023-08-01T05:28:31;6.50;;;2.47;;
51724;SDS011;37801;53.224;6.552;2023-08-01T05:31:17;6.18;;;2.75;;
51724;SDS011;37801;53.224;6.552;2023-08-01T05:34:02;6.32;;;2.33;;
51724;SDS011;37801;53.224;6.552;2023-08-01T05:36:48;8.45;;;2.70;;
51724;SDS011;37801;53.224;6.552;2023-08-01T05:39:33;5.45;;;2.47;;
51724;SDS011;37801;53.224;6.552;2023-08-01T05:42:19;6.53;;;2.28;;
51724;SDS011;37801;53.224;6.552;2023-08-01T05:45:05;5.47;;;2.47;;
51724;SDS011;37801;53.224;6.552;2023-08-01T05:47:50;7.18;;;2.65;;
51724;SDS011;37801;53.224;6.552;2023-08-01T05:50:36;5.80;;;2.53;;
51724;SDS011;37801;53.224;6.552;2023-08-01T05:53:22;6.75;;;2.65;;
51724;SDS011;37801;53.224;6.552;2023-08-01T05:56:07;6.07;;;3.20;;
51724;SDS011;37801;53.224;6.552;2023-08-01T05:58:53;5.53;;;3.10;;
51724;SDS011;37801;53.224;6.552;2023-08-01T06:01:38;6.45;;;3.50;;
51724;SDS011;37801;53.224;6.552;2023-08-01T06:04:24;5.28;;;2.85;;
51724;SDS011;37801;53.224;6.552;2023-08-01T06:07:10;7.25;;;3.20;;
51724;SDS011;37801;53.224;6.552;2023-08-01T06:09:55;7.65;;;3.60;;
51724;SDS011;37801;53.224;6.552;2023-08-01T06:12:41;5.30;;;2.80;;
51724;SDS011;37801;53.224;6.552;2023-08-01T06:15:26;7.25;;;3.38;;
51724;SDS011;37801;53.224;6.552;2023-08-01T06:18:12;5.80;;;3.00;;
51724;SDS011;37801;53.224;6.552;2023-08-01T06:20:38;5.82;;;3.05;;
51724;SDS011;37801;53.224;6.552;2023-08-01T06:23:04;5.18;;;3.00;;
51724;SDS011;37801;53.224;6.552;2023-08-01T06:25:30;7.03;;;3.30;;
51724;SDS011;37801;53.224;6.552;2023-08-01T06:27:55;8.35;;;3.92;;
51724;SDS011;37801;53.224;6.552;2023-08-01T06:30:21;8.80;;;4.60;;
51724;SDS011;37801;53.224;6.552;2023-08-01T06:32:47;6.60;;;3.65;;
51724;SDS011;37801;53.224;6.552;2023-08-01T06:35:12;9.63;;;3.25;;
51724;SDS011;37801;53.224;6.552;2023-08-01T06:37:38;6.30;;;2.95;;
51724;SDS011;37801;53.224;6.552;2023-08-01T06:40:04;5.47;;;2.85;;
51724;SDS011;37801;53.224;6.552;2023-08-01T06:42:30;6.57;;;3.15;;
51724;SDS011;37801;53.224;6.552;2023-08-01T06:44:56;6.50;;;3.17;;
51724;SDS011;37801;53.224;6.552;2023-08-01T06:47:21;4.78;;;2.58;;
51724;SDS011;37801;53.224;6.552;2023-08-01T06:49:47;4.95;;;2.78;;
51724;SDS011;37801;53.224;6.552;2023-08-01T06:52:33;6.35;;;3.00;;
51724;SDS011;37801;53.224;6.552;2023-08-01T06:54:58;4.90;;;3.13;;
51724;SDS011;37801;53.224;6.552;2023-08-01T06:57:24;6.18;;;2.63;;
51724;SDS011;37801;53.224;6.552;2023-08-01T06:59:49;6.40;;;2.58;;
51724;SDS011;37801;53.224;6.552;2023-08-01T07:02:15;5.25;;;2.63;;
51724;SDS011;37801;53.224;6.552;2023-08-01T07:04:41;6.60;;;2.80;;
51724;SDS011;37801;53.224;6.552;2023-08-01T07:07:07;5.05;;;2.35;;
51724;SDS011;37801;53.224;6.552;2023-08-01T07:09:33;4.82;;;2.60;;
51724;SDS011;37801;53.224;6.552;2023-08-01T07:11:59;7.18;;;2.72;;
51724;SDS011;37801;53.224;6.552;2023-08-01T07:14:25;7.25;;;2.63;;
51724;SDS011;37801;53.224;6.552;2023-08-01T07:16:50;6.00;;;2.58;;
51724;SDS011;37801;53.224;6.552;2023-08-01T07:19:16;5.25;;;2.50;;
51724;SDS011;37801;53.224;6.552;2023-08-01T07:21:42;6.25;;;2.55;;
51724;SDS011;37801;53.224;6.552;2023-08-01T07:24:10;5.63;;;2.50;;
51724;SDS011;37801;53.224;6.552;2023-08-01T07:26:55;6.07;;;2.38;;
51724;SDS011;37801;53.224;6.552;2023-08-01T07:29:21;5.32;;;2.20;;
51724;SDS011;37801;53.224;6.552;2023-08-01T07:31:46;5.70;;;1.85;;
51724;SDS011;37801;53.224;6.552;2023-08-01T07:34:12;6.43;;;2.10;;
51724;SDS011;37801;53.224;6.552;2023-08-01T07:36:38;7.88;;;2.10;;
51724;SDS011;37801;53.224;6.552;2023-08-01T07:39:04;6.97;;;1.73;;
51724;SDS011;37801;53.224;6.552;2023-08-01T07:41:30;5.03;;;1.98;;
51724;SDS011;37801;53.224;6.552;2023-08-01T07:44:15;5.47;;;1.42;;
51724;SDS011;37801;53.224;6.552;2023-08-01T07:47:01;8.80;;;1.58;;
51724;SDS011;37801;53.224;6.552;2023-08-01T07:49:46;6.93;;;1.65;;
51724;SDS011;37801;53.224;6.552;2023-08-01T07:52:32;8.40;;;1.42;;
51724;SDS011;37801;53.224;6.552;2023-08-01T07:55:18;4.53;;;1.63;;
51724;SDS011;37801;53.224;6.552;2023-08-01T07:58:03;10.15;;;2.00;;
51724;SDS011;37801;53.224;6.552;2023-08-01T08:00:49;6.00;;;1.60;;
51724;SDS011;37801;53.224;6.552;2023-08-01T08:03:14;8.27;;;1.92;;
51724;SDS011;37801;53.224;6.552;2023-08-01T08:05:40;3.95;;;1.58;;
51724;SDS011;37801;53.224;6.552;2023-08-01T08:08:06;5.70;;;1.67;;
51724;SDS011;37801;53.224;6.552;2023-08-01T08:10:31;4.20;;;1.70;;
51724;SDS011;37801;53.224;6.552;2023-08-01T08:12:57;6.47;;;1.65;;
51724;SDS011;37801;53.224;6.552;2023-08-01T08:15:43;5.22;;;1.67;;
51724;SDS011;37801;53.224;6.552;2023-08-01T08:18:28;4.93;;;1.48;;
51724;SDS011;37801;53.224;6.552;2023-08-01T08:20:54;8.20;;;2.00;;
51724;SDS011;37801;53.224;6.552;2023-08-01T08:23:19;5.40;;;1.80;;
51724;SDS011;37801;53.224;6.552;2023-08-01T08:25:45;5.70;;;1.80;;
51724;SDS011;37801;53.224;6.552;2023-08-01T08:28:31;5.63;;;1.88;;
51724;SDS011;37801;53.224;6.552;2023-08-01T08:31:18;5.65;;;1.85;;
51724;SDS011;37801;53.224;6.552;2023-08-01T08:34:03;4.68;;;1.60;;
51724;SDS011;37801;53.224;6.552;2023-08-01T08:36:49;4.60;;;1.73;;
51724;SDS011;37801;53.224;6.552;2023-08-01T08:39:35;6.65;;;2.30;;
51724;SDS011;37801;53.224;6.552;2023-08-01T08:42:20;6.18;;;1.90;;
51724;SDS011;37801;53.224;6.552;2023-08-01T08:45:06;5.80;;;1.60;;
51724;SDS011;37801;53.224;6.552;2023-08-01T08:47:54;6.55;;;1.58;;
51724;SDS011;37801;53.224;6.552;2023-08-01T08:50:45;6.10;;;1.73;;
51724;SDS011;37801;53.224;6.552;2023-08-01T08:53:31;6.10;;;2.33;;
51724;SDS011;37801;53.224;6.552;2023-08-01T08:56:20;4.70;;;1.75;;
51724;SDS011;37801;53.224;6.552;2023-08-01T08:59:05;5.38;;;1.83;;
51724;SDS011;37801;53.224;6.552;2023-08-01T09:01:52;6.50;;;1.83;;
51724;SDS011;37801;53.224;6.552;2023-08-01T09:04:37;4.40;;;1.90;;
51724;SDS011;37801;53.224;6.552;2023-08-01T09:07:23;3.80;;;1.65;;
51724;SDS011;37801;53.224;6.552;2023-08-01T09:10:10;5.32;;;1.90;;
51724;SDS011;37801;53.224;6.552;2023-08-01T09:12:56;6.35;;;2.00;;
51724;SDS011;37801;53.224;6.552;2023-08-01T09:15:42;5.68;;;2.10;;
51724;SDS011;37801;53.224;6.552;2023-08-01T09:18:28;6.97;;;2.30;;
51724;SDS011;37801;53.224;6.552;2023-08-01T09:21:13;7.25;;;2.33;;
51724;SDS011;37801;53.224;6.552;2023-08-01T09:24:09;7.35;;;2.53;;
51724;SDS011;37801;53.224;6.552;2023-08-01T09:27:01;5.55;;;2.38;;
51724;SDS011;37801;53.224;6.552;2023-08-01T09:29:48;7.25;;;2.53;;
51724;SDS011;37801;53.224;6.552;2023-08-01T09:32:34;5.47;;;2.53;;
51724;SDS011;37801;53.224;6.552;2023-08-01T09:35:19;5.35;;;1.98;;
51724;SDS011;37801;53.224;6.552;2023-08-01T09:37:46;4.93;;;1.98;;
51724;SDS011;37801;53.224;6.552;2023-08-01T09:40:13;8.35;;;2.80;;
51724;SDS011;37801;53.224;6.552;2023-08-01T09:42:44;5.32;;;1.83;;
51724;SDS011;37801;53.224;6.552;2023-08-01T09:45:13;6.60;;;1.80;;
51724;SDS011;37801;53.224;6.552;2023-08-01T09:47:43;7.20;;;1.77;;
51724;SDS011;37801;53.224;6.552;2023-08-01T09:50:10;5.40;;;1.88;;
51724;SDS011;37801;53.224;6.552;2023-08-01T09:52:36;3.42;;;1.35;;
51724;SDS011;37801;53.224;6.552;2023-08-01T09:55:26;7.68;;;1.52;;
51724;SDS011;37801;53.224;6.552;2023-08-01T09:58:17;6.43;;;1.80;;
51724;SDS011;37801;53.224;6.552;2023-08-01T10:01:09;6.45;;;2.20;;
51724;SDS011;37801;53.224;6.552;2023-08-01T10:03:55;4.65;;;1.90;;
51724;SDS011;37801;53.224;6.552;2023-08-01T10:06:42;8.35;;;2.03;;
51724;SDS011;37801;53.224;6.552;2023-08-01T10:09:31;5.53;;;2.00;;
51724;SDS011;37801;53.224;6.552;2023-08-01T10:12:18;6.03;;;2.08;;
51724;SDS011;37801;53.224;6.552;2023-08-01T10:15:03;10.98;;;2.20;;
51724;SDS011;37801;53.224;6.552;2023-08-01T10:17:50;5.40;;;2.45;;
51724;SDS011;37801;53.224;6.552;2023-08-01T10:20:36;8.57;;;2.50;;
51724;SDS011;37801;53.224;6.552;2023-08-01T10:23:23;4.85;;;2.03;;
51724;SDS011;37801;53.224;6.552;2023-08-01T10:26:09;4.97;;;2.00;;
51724;SDS011;37801;53.224;6.552;2023-08-01T10:28:56;9.73;;;2.55;;
51724;SDS011;37801;53.224;6.552;2023-08-01T10:31:51;6.20;;;2.20;;
51724;SDS011;37801;53.224;6.552;2023-08-01T10:34:38;5.53;;;2.00;;
51724;SDS011;37801;53.224;6.552;2023-08-01T10:37:23;10.02;;;2.63;;
51724;SDS011;37801;53.224;6.552;2023-08-01T10:40:09;8.15;;;2.55;;
51724;SDS011;37801;53.224;6.552;2023-08-01T10:42:55;8.82;;;2.97;;
51724;SDS011;37801;53.224;6.552;2023-08-01T10:45:41;6.18;;;2.83;;
51724;SDS011;37801;53.224;6.552;2023-08-01T10:48:26;6.03;;;2.38;;
51724;SDS011;37801;53.224;6.552;2023-08-01T10:51:12;7.97;;;2.63;;
51724;SDS011;37801;53.224;6.552;2023-08-01T10:53:58;9.02;;;2.28;;
51724;SDS011;37801;53.224;6.552;2023-08-01T10:56:46;6.53;;;2.30;;
51724;SDS011;37801;53.224;6.552;2023-08-01T10:59:33;7.50;;;2.38;;
51724;SDS011;37801;53.224;6.552;2023-08-01T11:02:23;6.40;;;2.10;;
51724;SDS011;37801;53.224;6.552;2023-08-01T11:05:11;11.82;;;2.53;;
51724;SDS011;37801;53.224;6.552;2023-08-01T11:07:57;8.27;;;2.10;;
51724;SDS011;37801;53.224;6.552;2023-08-01T11:10:48;5.97;;;2.10;;
51724;SDS011;37801;53.224;6.552;2023-08-01T11:13:34;7.68;;;2.28;;
51724;SDS011;37801;53.224;6.552;2023-08-01T11:16:20;5.57;;;2.08;;
51724;SDS011;37801;53.224;6.552;2023-08-01T11:19:06;8.30;;;2.45;;
51724;SDS011;37801;53.224;6.552;2023-08-01T11:21:51;4.45;;;1.73;;
51724;SDS011;37801;53.224;6.552;2023-08-01T11:24:38;5.35;;;2.15;;
51724;SDS011;37801;53.224;6.552;2023-08-01T11:27:24;5.45;;;1.90;;
51724;SDS011;37801;53.224;6.552;2023-08-01T11:30:10;8.68;;;2.30;;
51724;SDS011;37801;53.224;6.552;2023-08-01T11:32:56;8.10;;;2.03;;
51724;SDS011;37801;53.224;6.552;2023-08-01T11:35:42;7.25;;;2.13;;
51724;SDS011;37801;53.224;6.552;2023-08-01T11:38:29;6.03;;;2.03;;
51724;SDS011;37801;53.224;6.552;2023-08-01T11:41:15;7.75;;;1.85;;
51724;SDS011;37801;53.224;6.552;2023-08-01T11:44:02;5.28;;;1.60;;
51724;SDS011;37801;53.224;6.552;2023-08-01T11:46:48;6.70;;;2.17;;
51724;SDS011;37801;53.224;6.552;2023-08-01T11:49:33;8.13;;;2.20;;
51724;SDS011;37801;53.224;6.552;2023-08-01T11:52:23;5.63;;;1.90;;
51724;SDS011;37801;53.224;6.552;2023-08-01T11:55:17;9.07;;;1.90;;
51724;SDS011;37801;53.224;6.552;2023-08-01T11:58:07;10.43;;;2.05;;
51724;SDS011;37801;53.224;6.552;2023-08-01T12:01:01;8.63;;;1.65;;
51724;SDS011;37801;53.224;6.552;2023-08-01T12:03:54;4.55;;;1.50;;
51724;SDS011;37801;53.224;6.552;2023-08-01T12:06:40;4.88;;;1.50;;
51724;SDS011;37801;53.224;6.552;2023-08-01T12:09:25;5.38;;;1.20;;
51724;SDS011;37801;53.224;6.552;2023-08-01T12:12:11;6.57;;;1.40;;
51724;SDS011;37801;53.224;6.552;2023-08-01T12:14:57;6.85;;;1.60;;
51724;SDS011;37801;53.224;6.552;2023-08-01T12:17:42;6.18;;;1.60;;
51724;SDS011;37801;53.224;6.552;2023-08-01T12:20:28;5.82;;;1.80;;
51724;SDS011;37801;53.224;6.552;2023-08-01T12:23:13;8.40;;;2.00;;
51724;SDS011;37801;53.224;6.552;2023-08-01T12:25:59;5.55;;;1.90;;
51724;SDS011;37801;53.224;6.552;2023-08-01T12:28:44;7.03;;;2.17;;
51724;SDS011;37801;53.224;6.552;2023-08-01T12:31:30;8.15;;;2.05;;
51724;SDS011;37801;53.224;6.552;2023-08-01T12:34:16;8.13;;;2.75;;
51724;SDS011;37801;53.224;6.552;2023-08-01T12:37:01;5.80;;;1.90;;
51724;SDS011;37801;53.224;6.552;2023-08-01T12:39:47;7.70;;;2.60;;
51724;SDS011;37801;53.224;6.552;2023-08-01T12:42:33;6.03;;;2.08;;
51724;SDS011;37801;53.224;6.552;2023-08-01T12:45:18;6.47;;;1.90;;
51724;SDS011;37801;53.224;6.552;2023-08-01T12:48:04;6.63;;;2.28;;
51724;SDS011;37801;53.224;6.552;2023-08-01T12:50:49;6.72;;;2.03;;
51724;SDS011;37801;53.224;6.552;2023-08-01T12:53:35;7.35;;;2.25;;
51724;SDS011;37801;53.224;6.552;2023-08-01T12:56:21;5.30;;;2.20;;
51724;SDS011;37801;53.224;6.552;2023-08-01T12:59:07;6.55;;;2.00;;
51724;SDS011;37801;53.224;6.552;2023-08-01T13:01:52;7.88;;;2.47;;
51724;SDS011;37801;53.224;6.552;2023-08-01T13:04:38;5.43;;;2.20;;
51724;SDS011;37801;53.224;6.552;2023-08-01T13:07:24;7.50;;;2.42;;
51724;SDS011;37801;53.224;6.552;2023-08-01T13:10:09;7.18;;;1.90;;
51724;SDS011;37801;53.224;6.552;2023-08-01T13:12:55;5.25;;;2.00;;
51724;SDS011;37801;53.224;6.552;2023-08-01T13:15:40;5.32;;;1.83;;
51724;SDS011;37801;53.224;6.552;2023-08-01T13:18:26;8.13;;;2.00;;
51724;SDS011;37801;53.224;6.552;2023-08-01T13:21:12;7.15;;;2.03;;
51724;SDS011;37801;53.224;6.552;2023-08-01T13:23:58;4.85;;;1.77;;
51724;SDS011;37801;53.224;6.552;2023-08-01T13:26:43;5.20;;;1.40;;
51724;SDS011;37801;53.224;6.552;2023-08-01T13:29:29;6.75;;;1.60;;
51724;SDS011;37801;53.224;6.552;2023-08-01T13:32:15;5.05;;;1.50;;
51724;SDS011;37801;53.224;6.552;2023-08-01T13:35:00;6.60;;;1.50;;
51724;SDS011;37801;53.224;6.552;2023-08-01T13:37:46;9.98;;;1.65;;
51724;SDS011;37801;53.224;6.552;2023-08-01T13:40:32;5.25;;;1.63;;
51724;SDS011;37801;53.224;6.552;2023-08-01T13:43:18;5.13;;;1.75;;
51724;SDS011;37801;53.224;6.552;2023-08-01T13:46:11;5.75;;;1.85;;
51724;SDS011;37801;53.224;6.552;2023-08-01T13:48:58;6.70;;;1.85;;
51724;SDS011;37801;53.224;6.552;2023-08-01T13:51:44;6.75;;;1.65;;
51724;SDS011;37801;53.224;6.552;2023-08-01T13:54:30;5.45;;;1.70;;
51724;SDS011;37801;53.224;6.552;2023-08-01T13:56:55;4.85;;;1.70;;
51724;SDS011;37801;53.224;6.552;2023-08-01T13:59:22;5.10;;;2.00;;
51724;SDS011;37801;53.224;6.552;2023-08-01T14:01:48;4.90;;;1.52;;
51724;SDS011;37801;53.224;6.552;2023-08-01T14:04:33;5.35;;;1.50;;
51724;SDS011;37801;53.224;6.552;2023-08-01T14:07:15;7.07;;;1.52;;
51724;SDS011;37801;53.224;6.552;2023-08-01T14:09:41;6.50;;;1.63;;
51724;SDS011;37801;53.224;6.552;2023-08-01T14:12:06;3.55;;;1.25;;
51724;SDS011;37801;53.224;6.552;2023-08-01T14:14:32;7.53;;;1.55;;
51724;SDS011;37801;53.224;6.552;2023-08-01T14:16:58;5.10;;;1.33;;
51724;SDS011;37801;53.224;6.552;2023-08-01T14:19:23;3.53;;;1.25;;
51724;SDS011;37801;53.224;6.552;2023-08-01T14:22:09;5.53;;;1.13;;
51724;SDS011;37801;53.224;6.552;2023-08-01T14:24:55;3.90;;;1.15;;
51724;SDS011;37801;53.224;6.552;2023-08-01T14:27:40;6.65;;;1.58;;
51724;SDS011;37801;53.224;6.552;2023-08-01T14:30:26;5.55;;;1.42;;
51724;SDS011;37801;53.224;6.552;2023-08-01T14:33:12;5.15;;;1.42;;
51724;SDS011;37801;53.224;6.552;2023-08-01T14:35:58;5.00;;;1.15;;
51724;SDS011;37801;53.224;6.552;2023-08-01T14:38:43;7.78;;;1.92;;
51724;SDS011;37801;53.224;6.552;2023-08-01T14:41:30;5.25;;;1.42;;
51724;SDS011;37801;53.224;6.552;2023-08-01T14:44:16;3.55;;;1.38;;
51724;SDS011;37801;53.224;6.552;2023-08-01T14:47:01;4.60;;;1.40;;
51724;SDS011;37801;53.224;6.552;2023-08-01T14:49:47;4.93;;;1.17;;
51724;SDS011;37801;53.224;6.552;2023-08-01T14:52:32;3.85;;;1.17;;
51724;SDS011;37801;53.224;6.552;2023-08-01T14:55:18;6.88;;;1.50;;
51724;SDS011;37801;53.224;6.552;2023-08-01T14:58:04;4.03;;;1.20;;
51724;SDS011;37801;53.224;6.552;2023-08-01T15:00:49;6.47;;;1.20;;
51724;SDS011;37801;53.224;6.552;2023-08-01T15:03:35;5.43;;;1.20;;
51724;SDS011;37801;53.224;6.552;2023-08-01T15:06:20;3.97;;;1.30;;
51724;SDS011;37801;53.224;6.552;2023-08-01T15:09:06;3.00;;;1.10;;
51724;SDS011;37801;53.224;6.552;2023-08-01T15:11:52;2.47;;;0.93;;
51724;SDS011;37801;53.224;6.552;2023-08-01T15:14:37;5.35;;;1.10;;
51724;SDS011;37801;53.224;6.552;2023-08-01T15:17:23;4.93;;;0.90;;
51724;SDS011;37801;53.224;6.552;2023-08-01T15:20:09;3.42;;;0.90;;
51724;SDS011;37801;53.224;6.552;2023-08-01T15:22:55;4.50;;;1.00;;
51724;SDS011;37801;53.224;6.552;2023-08-01T15:25:41;3.85;;;1.17;;
51724;SDS011;37801;53.224;6.552;2023-08-01T15:28:35;4.63;;;1.00;;
51724;SDS011;37801;53.224;6.552;2023-08-01T15:31:21;1.92;;;0.75;;
51724;SDS011;37801;53.224;6.552;2023-08-01T15:34:07;2.60;;;0.90;;
51724;SDS011;37801;53.224;6.552;2023-08-01T15:36:55;4.43;;;1.20;;
51724;SDS011;37801;53.224;6.552;2023-08-01T15:39:41;5.50;;;1.30;;
51724;SDS011;37801;53.224;6.552;2023-08-01T15:42:26;4.88;;;1.23;;
51724;SDS011;37801;53.224;6.552;2023-08-01T15:45:12;4.30;;;1.25;;
51724;SDS011;37801;53.224;6.552;2023-08-01T15:47:57;7.63;;;1.50;;
51724;SDS011;37801;53.224;6.552;2023-08-01T15:50:43;4.30;;;1.33;;
51724;SDS011;37801;53.224;6.552;2023-08-01T15:53:29;5.95;;;1.20;;
51724;SDS011;37801;53.224;6.552;2023-08-01T15:56:15;2.50;;;0.98;;
51724;SDS011;37801;53.224;6.552;2023-08-01T15:59:00;4.03;;;1.10;;
51724;SDS011;37801;53.224;6.552;2023-08-01T16:01:46;4.03;;;1.23;;
51724;SDS011;37801;53.224;6.552;2023-08-01T16:04:31;5.35;;;1.23;;